Time;durP1;ratioP1;P1;durP2;ratioP2;P2;SDS_P1;SDS_P2;PMS_P1;PMS_P2;Temp;Humidity;BMP_temperature;BMP_pressure;BME280_temperature;BME280_humidity;BME280_pressure;Samples;Min_cycle;Max_cycle;Signal;HPM_P1;HPM_P2
2022/04/29 00:00:27;;;;;;;;;;;6.30;99.90;;;;;;4999129;28;20000;-69
2022/04/29 00:02:53;;;;;;;;;;;6.60;99.90;;;;;;5005478;28;20362;-68
2022/04/29 00:05:19;;;;;;;;;;;6.30;99.90;;;;;;4999930;28;19941;-68
2022/04/29 00:07:45;;;;;;;;;;;6.30;99.90;;;;;;5013858;28;20012;-66
2022/04/29 00:10:12;;;;;;;;;;;6.30;99.90;;;;;;4996972;28;20016;-68
2022/04/29 00:12:41;;;;;;;;;;;6.30;99.90;;;;;;5017988;28;19972;-67
2022/04/29 00:15:11;;;;;;;;;;;6.40;99.90;;;;;;4999320;28;20435;-67
2022/04/29 00:17:37;;;;;;;;;;;6.30;99.90;;;;;;4998634;28;19953;-67
2022/04/29 00:20:03;;;;;;;;;;;6.20;99.90;;;;;;5000271;28;19969;-68
2022/04/29 00:22:29;;;;;;;;;;;6.20;99.90;;;;;;4998431;28;20016;-68
2022/04/29 00:24:55;;;;;;;;;;;6.20;99.90;;;;;;4996581;28;20134;-68
2022/04/29 00:27:20;;;;;;;;;;;6.20;99.90;;;;;;5016066;28;20009;-67
2022/04/29 00:29:46;;;;;;;;;;;6.20;99.90;;;;;;5002373;28;19926;-68
2022/04/29 00:32:11;;;;;;;;;;;6.30;99.90;;;;;;4996377;28;19925;-68
2022/04/29 00:34:37;;;;;;;;;;;6.90;99.90;;;;;;5000914;28;19925;-68
2022/04/29 00:37:02;;;;;;;;;;;6.20;99.90;;;;;;5012291;28;19936;-68
2022/04/29 00:39:28;;;;;;;;;;;6.20;99.90;;;;;;4997651;28;20047;-68
2022/04/29 00:41:54;;;;;;;;;;;6.30;99.90;;;;;;4998343;28;20016;-68
2022/04/29 00:44:19;;;;;;;;;;;6.20;99.90;;;;;;5001771;28;20352;-68
2022/04/29 00:46:45;;;;;;;;;;;6.20;99.90;;;;;;5000961;28;19933;-67
2022/04/29 00:49:12;;;;;;;;;;;6.20;99.90;;;;;;4999663;28;19929;-69
2022/04/29 00:51:39;;;;;;;;;;;6.20;99.90;;;;;;4997666;28;19934;-68
2022/04/29 00:54:07;;;;;;;;;;;6.10;99.90;;;;;;4997358;28;19925;-69
2022/04/29 00:56:34;;;;;;;;;;;6.10;99.90;;;;;;4999331;28;20467;-68
2022/04/29 00:59:02;;;;;;;;;;;6.10;99.90;;;;;;5000464;28;19959;-68
2022/04/29 01:01:28;;;;;;;;;;;6.10;99.90;;;;;;4998134;28;19936;-67
2022/04/29 01:03:55;;;;;;;;;;;6.10;99.90;;;;;;5009987;28;19925;-68
2022/04/29 01:06:21;;;;;;;;;;;6.10;99.90;;;;;;5001029;28;19964;-68
2022/04/29 01:08:46;;;;;;;;;;;6.20;99.90;;;;;;4999492;28;20038;-67
2022/04/29 01:11:12;;;;;;;;;;;6.10;99.90;;;;;;5006141;28;19937;-69
2022/04/29 01:13:37;;;;;;;;;;;6.10;99.90;;;;;;4997838;28;19925;-68
2022/04/29 01:16:06;;;;;;;;;;;6.10;99.90;;;;;;4990851;28;19926;-67
2022/04/29 01:18:32;;;;;;;;;;;6.00;99.90;;;;;;5004357;28;19925;-67
2022/04/29 01:21:01;;;;;;;;;;;6.10;99.90;;;;;;5001827;28;19932;-68
2022/04/29 01:23:28;;;;;;;;;;;6.00;99.90;;;;;;5022718;28;19926;-68
2022/04/29 01:25:54;;;;;;;;;;;6.00;99.90;;;;;;5006421;28;19933;-67
2022/04/29 01:28:21;;;;;;;;;;;6.10;99.90;;;;;;4993939;28;19925;-69
2022/04/29 01:30:49;;;;;;;;;;;6.00;99.90;;;;;;4998212;28;19925;-67
2022/04/29 01:33:15;;;;;;;;;;;6.00;99.90;;;;;;4996350;28;20422;-68
2022/04/29 01:35:40;;;;;;;;;;;6.00;99.90;;;;;;4995697;28;19933;-68
2022/04/29 01:38:06;;;;;;;;;;;6.00;99.90;;;;;;5006456;28;20422;-68
2022/04/29 01:40:31;;;;;;;;;;;6.10;99.90;;;;;;5003513;28;19925;-68
2022/04/29 01:42:57;;;;;;;;;;;6.00;99.90;;;;;;5001344;28;20007;-67
2022/04/29 01:45:22;;;;;;;;;;;6.00;99.90;;;;;;4997885;28;19925;-69
2022/04/29 01:47:48;;;;;;;;;;;6.10;99.90;;;;;;5004590;28;20025;-68
2022/04/29 01:50:13;;;;;;;;;;;7.30;99.90;;;;;;5014802;28;19932;-69
2022/04/29 01:52:39;;;;;;;;;;;6.10;99.90;;;;;;4988844;28;19925;-68
2022/04/29 01:55:05;;;;;;;;;;;6.20;99.90;;;;;;5000310;28;19971;-70
2022/04/29 01:57:30;;;;;;;;;;;6.10;99.90;;;;;;4999200;28;19921;-68
2022/04/29 01:59:56;;;;;;;;;;;7.80;99.90;;;;;;5001597;28;19925;-67
2022/04/29 02:02:22;;;;;;;;;;;6.10;99.90;;;;;;5015316;28;19956;-67
2022/04/29 02:04:47;;;;;;;;;;;6.10;99.90;;;;;;5007822;28;19933;-67
2022/04/29 02:07:13;;;;;;;;;;;6.10;99.90;;;;;;4994775;28;20368;-67
2022/04/29 02:09:38;;;;;;;;;;;6.10;99.90;;;;;;5007940;28;19925;-68
2022/04/29 02:12:04;;;;;;;;;;;6.00;99.90;;;;;;5020197;28;19922;-68
2022/04/29 02:14:34;;;;;;;;;;;6.00;99.90;;;;;;5007227;28;19926;-68
2022/04/29 02:17:01;;;;;;;;;;;6.00;99.90;;;;;;5000456;28;20025;-67
2022/04/29 02:19:28;;;;;;;;;;;6.60;99.90;;;;;;4997150;28;19925;-68
2022/04/29 02:21:54;;;;;;;;;;;6.00;99.90;;;;;;5001669;28;19925;-67
2022/04/29 02:24:20;;;;;;;;;;;6.00;99.90;;;;;;4988364;28;19948;-68
2022/04/29 02:26:45;;;;;;;;;;;6.00;99.90;;;;;;4999573;28;20386;-68
2022/04/29 02:29:11;;;;;;;;;;;6.10;99.90;;;;;;5008745;28;20466;-68
2022/04/29 02:31:36;;;;;;;;;;;7.40;99.90;;;;;;5005960;28;20400;-69
2022/04/29 02:34:03;;;;;;;;;;;6.10;99.90;;;;;;4994617;28;20057;-68
2022/04/29 02:36:29;;;;;;;;;;;6.10;99.90;;;;;;5004861;28;20058;-67
2022/04/29 02:38:54;;;;;;;;;;;6.10;99.90;;;;;;4996579;28;20011;-67
2022/04/29 02:41:20;;;;;;;;;;;6.50;99.90;;;;;;5008570;28;19929;-68
2022/04/29 02:43:45;;;;;;;;;;;6.10;99.90;;;;;;5009874;28;19925;-68
2022/04/29 02:46:11;;;;;;;;;;;6.10;99.90;;;;;;5009434;28;19925;-67
2022/04/29 02:48:37;;;;;;;;;;;6.10;99.90;;;;;;4994137;28;19932;-68
2022/04/29 02:51:05;;;;;;;;;;;6.10;99.90;;;;;;5010703;28;19925;-69
2022/04/29 02:53:31;;;;;;;;;;;6.10;99.90;;;;;;5012343;28;20390;-68
2022/04/29 02:55:57;;;;;;;;;;;6.10;99.90;;;;;;5022837;28;19933;-67
2022/04/29 02:58:22;;;;;;;;;;;6.10;99.90;;;;;;4992822;28;19929;-68
2022/04/29 03:00:48;;;;;;;;;;;7.40;99.90;;;;;;4997229;28;20005;-68
2022/04/29 03:03:13;;;;;;;;;;;6.10;99.90;;;;;;5010316;28;20394;-67
2022/04/29 03:05:39;;;;;;;;;;;6.20;99.90;;;;;;5001308;28;19926;-68
2022/04/29 03:08:05;;;;;;;;;;;6.90;99.90;;;;;;5008236;28;19952;-67
2022/04/29 03:10:31;;;;;;;;;;;6.10;99.90;;;;;;4996430;28;19995;-68
2022/04/29 03:12:56;;;;;;;;;;;6.20;99.90;;;;;;5007283;28;20019;-68
2022/04/29 03:15:25;;;;;;;;;;;5.30;99.90;;;;;;5009217;28;19937;-68
2022/04/29 03:20:36;;;;;;;;;;;6.10;99.90;;;;;;5004964;28;20453;-69
2022/04/29 03:23:02;;;;;;;;;;;6.10;99.90;;;;;;5000513;28;19951;-69
2022/04/29 03:25:28;;;;;;;;;;;5.40;99.90;;;;;;5005066;28;19933;-68
2022/04/29 03:27:53;;;;;;;;;;;6.10;99.90;;;;;;5006872;28;19926;-67
2022/04/29 03:30:19;;;;;;;;;;;6.20;99.90;;;;;;5007773;28;20037;-68
2022/04/29 03:32:57;;;;;;;;;;;6.10;99.90;;;;;;5004579;28;19926;-68
2022/04/29 03:35:22;;;;;;;;;;;6.10;99.90;;;;;;5002911;28;19937;-68
2022/04/29 03:37:51;;;;;;;;;;;6.10;99.90;;;;;;5008630;28;19925;-68
2022/04/29 03:40:23;;;;;;;;;;;6.10;99.90;;;;;;4998967;28;20028;-68
2022/04/29 03:42:56;;;;;;;;;;;6.20;99.90;;;;;;5007331;28;19925;-67
2022/04/29 03:45:23;;;;;;;;;;;6.10;99.90;;;;;;4997691;28;20012;-67
2022/04/29 03:47:48;;;;;;;;;;;6.20;99.90;;;;;;5006551;28;19925;-68
2022/04/29 03:50:15;;;;;;;;;;;6.30;99.90;;;;;;5005574;28;19925;-67
2022/04/29 03:52:51;;;;;;;;;;;6.20;99.90;;;;;;5008545;28;19925;-68
2022/04/29 03:55:24;;;;;;;;;;;6.20;99.90;;;;;;5000547;28;19925;-67
2022/04/29 03:57:50;;;;;;;;;;;6.20;99.90;;;;;;5026181;28;19931;-68
2022/04/29 04:00:16;;;;;;;;;;;6.20;99.90;;;;;;5000695;28;20259;-67
2022/04/29 04:02:42;;;;;;;;;;;6.20;99.90;;;;;;5003237;28;19950;-68
2022/04/29 04:05:08;;;;;;;;;;;6.20;99.90;;;;;;5004323;28;19973;-68
2022/04/29 04:07:34;;;;;;;;;;;6.30;99.90;;;;;;5010701;28;19945;-68
2022/04/29 04:10:00;;;;;;;;;;;6.30;99.90;;;;;;5005333;28;19952;-67
2022/04/29 04:12:26;;;;;;;;;;;7.60;99.90;;;;;;5002751;28;19925;-67
2022/04/29 04:14:51;;;;;;;;;;;6.20;99.90;;;;;;4993912;28;19972;-67
2022/04/29 04:17:18;;;;;;;;;;;6.20;99.90;;;;;;5008143;28;19936;-67
2022/04/29 04:19:43;;;;;;;;;;;6.30;99.90;;;;;;4995516;28;19940;-67
2022/04/29 04:22:09;;;;;;;;;;;6.30;99.90;;;;;;5007794;28;20298;-69
2022/04/29 04:24:35;;;;;;;;;;;6.30;99.90;;;;;;5007055;28;19925;-70
2022/04/29 04:27:01;;;;;;;;;;;6.20;99.90;;;;;;4999492;28;19931;-68
2022/04/29 04:29:26;;;;;;;;;;;6.20;99.90;;;;;;5006665;28;19968;-68
2022/04/29 04:31:53;;;;;;;;;;;6.20;99.90;;;;;;5001451;28;20382;-69
2022/04/29 04:37:02;;;;;;;;;;;6.30;99.90;;;;;;4996656;28;19932;-69
2022/04/29 04:39:28;;;;;;;;;;;6.30;99.90;;;;;;4999914;28;19925;-69
2022/04/29 04:41:53;;;;;;;;;;;6.30;99.90;;;;;;5021695;28;19945;-68
2022/04/29 04:44:19;;;;;;;;;;;6.30;99.90;;;;;;5009125;28;19973;-68
2022/04/29 04:46:45;;;;;;;;;;;6.40;99.90;;;;;;4998056;28;19925;-68
2022/04/29 04:49:11;;;;;;;;;;;6.50;99.90;;;;;;5000372;28;19971;-69
2022/04/29 04:51:37;;;;;;;;;;;7.50;99.90;;;;;;5007903;28;19971;-68
2022/04/29 04:54:03;;;;;;;;;;;6.50;99.90;;;;;;5023485;28;19933;-68
2022/04/29 04:56:29;;;;;;;;;;;6.60;99.90;;;;;;5003559;28;19973;-68
2022/04/29 04:58:54;;;;;;;;;;;6.60;99.90;;;;;;5001694;28;20405;-68
2022/04/29 05:01:20;;;;;;;;;;;6.80;99.90;;;;;;4986102;28;20024;-68
2022/04/29 05:03:45;;;;;;;;;;;6.90;99.90;;;;;;5004575;28;19925;-68
2022/04/29 05:06:11;;;;;;;;;;;6.90;99.90;;;;;;5006016;28;19973;-68
2022/04/29 05:08:36;;;;;;;;;;;7.00;99.90;;;;;;5015698;28;19925;-68
2022/04/29 05:11:02;;;;;;;;;;;7.40;99.90;;;;;;5010071;28;19925;-68
2022/04/29 05:13:27;;;;;;;;;;;7.30;99.90;;;;;;4997245;28;19932;-68
2022/04/29 05:15:53;;;;;;;;;;;7.70;99.90;;;;;;4996938;28;20020;-68
2022/04/29 05:18:18;;;;;;;;;;;7.30;99.90;;;;;;5003055;28;20015;-67
2022/04/29 05:20:44;;;;;;;;;;;7.30;99.90;;;;;;5010164;28;20324;-68
2022/04/29 05:23:09;;;;;;;;;;;7.40;99.90;;;;;;5001144;28;19925;-68
2022/04/29 05:25:35;;;;;;;;;;;7.40;99.90;;;;;;5006510;28;19933;-68
2022/04/29 05:28:02;;;;;;;;;;;7.50;99.90;;;;;;5003812;28;19925;-68
2022/04/29 05:30:28;;;;;;;;;;;7.60;99.90;;;;;;5005750;28;20371;-69
2022/04/29 05:32:54;;;;;;;;;;;7.60;99.90;;;;;;5002073;28;19980;-70
2022/04/29 05:35:19;;;;;;;;;;;7.60;99.90;;;;;;5025216;28;19925;-68
2022/04/29 05:37:45;;;;;;;;;;;7.70;99.90;;;;;;5009298;28;20012;-67
2022/04/29 05:42:55;;;;;;;;;;;7.80;99.90;;;;;;5001716;28;19926;-68
2022/04/29 05:45:21;;;;;;;;;;;8.00;99.90;;;;;;4990204;28;19925;-69
2022/04/29 05:47:47;;;;;;;;;;;7.90;99.90;;;;;;4996571;28;19929;-68
2022/04/29 05:50:13;;;;;;;;;;;7.90;99.90;;;;;;5003073;28;20342;-68
2022/04/29 05:52:38;;;;;;;;;;;7.80;99.90;;;;;;4999408;28;19926;-69
2022/04/29 05:55:04;;;;;;;;;;;7.80;99.90;;;;;;4993446;28;19926;-69
2022/04/29 05:57:30;;;;;;;;;;;7.90;99.90;;;;;;4996077;28;19926;-68
2022/04/29 05:59:55;;;;;;;;;;;7.90;99.90;;;;;;5003017;28;19926;-69
2022/04/29 06:02:23;;;;;;;;;;;7.90;99.90;;;;;;4992190;28;19929;-68
2022/04/29 06:04:49;;;;;;;;;;;7.90;99.90;;;;;;5000902;28;20279;-67
2022/04/29 06:07:14;;;;;;;;;;;7.90;99.90;;;;;;5005351;28;19929;-69
2022/04/29 06:09:40;;;;;;;;;;;8.00;99.90;;;;;;5000723;28;19929;-68
2022/04/29 06:12:06;;;;;;;;;;;8.00;99.90;;;;;;5017151;28;20379;-68
2022/04/29 06:14:31;;;;;;;;;;;8.00;99.90;;;;;;4996423;28;20384;-69
2022/04/29 06:16:57;;;;;;;;;;;8.10;99.90;;;;;;4993735;28;19948;-67
2022/04/29 06:19:23;;;;;;;;;;;8.10;99.90;;;;;;5000432;28;20020;-67
2022/04/29 06:21:48;;;;;;;;;;;8.10;99.90;;;;;;4998355;28;19929;-68
2022/04/29 06:24:14;;;;;;;;;;;8.20;99.90;;;;;;5001215;28;20241;-68
2022/04/29 06:26:39;;;;;;;;;;;8.30;99.90;;;;;;4998991;28;20396;-67
2022/04/29 06:29:05;;;;;;;;;;;8.30;99.90;;;;;;4999909;28;19932;-68
2022/04/29 06:31:30;;;;;;;;;;;8.30;99.90;;;;;;4996956;28;20335;-69
2022/04/29 06:33:56;;;;;;;;;;;8.40;99.90;;;;;;4996526;28;19925;-68
2022/04/29 06:36:21;;;;;;;;;;;8.50;99.90;;;;;;4999654;28;19930;-68
2022/04/29 06:38:47;;;;;;;;;;;8.70;99.90;;;;;;5000745;28;20408;-67
2022/04/29 06:41:12;;;;;;;;;;;8.70;99.90;;;;;;4996638;28;19936;-67
2022/04/29 06:43:38;;;;;;;;;;;8.90;99.90;;;;;;5014193;28;19921;-68
2022/04/29 06:46:04;;;;;;;;;;;8.80;99.90;;;;;;5004442;28;20327;-68
2022/04/29 06:48:29;;;;;;;;;;;8.90;99.90;;;;;;5000278;28;19987;-68
2022/04/29 06:50:55;;;;;;;;;;;8.90;99.90;;;;;;4995764;28;19925;-67
2022/04/29 06:53:20;;;;;;;;;;;8.80;99.90;;;;;;4997038;28;19936;-67
2022/04/29 06:55:47;;;;;;;;;;;8.90;99.90;;;;;;4994316;28;19925;-69
2022/04/29 06:58:12;;;;;;;;;;;8.90;99.90;;;;;;5000236;28;19930;-69
2022/04/29 07:00:40;;;;;;;;;;;8.90;99.90;;;;;;5002874;28;20023;-70
2022/04/29 07:03:06;;;;;;;;;;;8.90;99.90;;;;;;4994436;28;19932;-70
2022/04/29 07:05:32;;;;;;;;;;;10.10;99.90;;;;;;5000128;28;19929;-68
2022/04/29 07:07:58;;;;;;;;;;;9.00;99.90;;;;;;4995624;28;19925;-68
2022/04/29 07:10:23;;;;;;;;;;;8.90;99.90;;;;;;5003251;28;19932;-67
2022/04/29 07:12:49;;;;;;;;;;;8.90;99.90;;;;;;4997592;28;19933;-70
2022/04/29 07:15:15;;;;;;;;;;;9.30;99.90;;;;;;4996678;28;19935;-69
2022/04/29 07:17:41;;;;;;;;;;;9.10;99.90;;;;;;5003505;28;19959;-69
2022/04/29 07:20:07;;;;;;;;;;;9.10;99.90;;;;;;5020823;28;19925;-68
2022/04/29 07:22:33;;;;;;;;;;;9.20;99.90;;;;;;5005548;28;19938;-69
2022/04/29 07:24:59;;;;;;;;;;;9.20;99.90;;;;;;5003229;28;19926;-68
2022/04/29 07:27:25;;;;;;;;;;;9.30;99.90;;;;;;5002019;28;19925;-68
2022/04/29 07:29:51;;;;;;;;;;;9.30;99.90;;;;;;4988606;28;19968;-68
2022/04/29 07:32:17;;;;;;;;;;;9.30;99.90;;;;;;5000087;28;19967;-68
2022/04/29 07:42:54;;;;;;;;;;;9.20;99.90;;;;;;5003661;28;20066;-66
2022/04/29 07:45:20;;;;;;;;;;;9.20;99.90;;;;;;5003974;28;20044;-68
2022/04/29 07:47:46;;;;;;;;;;;9.30;99.90;;;;;;5005657;28;19925;-69
2022/04/29 07:50:13;;;;;;;;;;;9.30;99.90;;;;;;5000509;28;20045;-67
2022/04/29 07:52:38;;;;;;;;;;;9.50;99.90;;;;;;5001637;28;20020;-67
2022/04/29 07:55:04;;;;;;;;;;;9.50;99.90;;;;;;5004515;28;20008;-67
2022/04/29 07:57:30;;;;;;;;;;;9.60;99.90;;;;;;4992522;28;19978;-67
2022/04/29 07:59:55;;;;;;;;;;;9.70;99.90;;;;;;5000386;28;20394;-66
2022/04/29 08:02:21;;;;;;;;;;;9.70;99.90;;;;;;5005669;28;19930;-69
2022/04/29 08:04:48;;;;;;;;;;;10.20;99.90;;;;;;5001813;28;19926;-69
2022/04/29 08:07:14;;;;;;;;;;;9.80;99.90;;;;;;5003606;28;19976;-68
2022/04/29 08:09:39;;;;;;;;;;;9.80;99.90;;;;;;5001539;28;19983;-68
2022/04/29 08:12:05;;;;;;;;;;;9.70;99.90;;;;;;4999657;28;20061;-67
2022/04/29 08:14:31;;;;;;;;;;;9.70;99.90;;;;;;5004765;28;19960;-68
2022/04/29 08:16:57;;;;;;;;;;;10.60;99.90;;;;;;5002318;28;19932;-68
2022/04/29 08:19:23;;;;;;;;;;;9.80;99.90;;;;;;4999139;28;19926;-68
2022/04/29 08:21:49;;;;;;;;;;;9.90;99.90;;;;;;5002601;28;19975;-69
2022/04/29 08:24:15;;;;;;;;;;;10.10;99.90;;;;;;5005188;28;19929;-68
2022/04/29 08:26:40;;;;;;;;;;;10.10;99.90;;;;;;5002102;28;20160;-68
2022/04/29 08:29:06;;;;;;;;;;;10.70;99.90;;;;;;4998964;28;19925;-69
2022/04/29 08:31:31;;;;;;;;;;;10.20;99.90;;;;;;4996140;28;20379;-68
2022/04/29 08:33:57;;;;;;;;;;;10.00;99.90;;;;;;5003131;28;20052;-69
2022/04/29 08:36:22;;;;;;;;;;;10.00;99.90;;;;;;4998568;28;19983;-68
2022/04/29 08:38:48;;;;;;;;;;;10.10;99.90;;;;;;5003853;28;19972;-68
2022/04/29 08:41:17;;;;;;;;;;;10.20;99.90;;;;;;5002579;28;20012;-68
2022/04/29 08:43:43;;;;;;;;;;;11.30;99.90;;;;;;5002045;28;19925;-68
2022/04/29 08:46:10;;;;;;;;;;;10.30;99.90;;;;;;5001979;28;20265;-67
2022/04/29 08:48:36;;;;;;;;;;;10.30;99.90;;;;;;4998909;28;19925;-68
2022/04/29 08:51:02;;;;;;;;;;;10.70;99.90;;;;;;5001265;28;19948;-69
2022/04/29 08:53:27;;;;;;;;;;;10.30;99.90;;;;;;5017212;28;20371;-68
2022/04/29 08:58:38;;;;;;;;;;;10.30;99.90;;;;;;5002198;28;19925;-68
2022/04/29 09:01:05;;;;;;;;;;;10.50;99.90;;;;;;4999807;28;20303;-68
2022/04/29 09:03:30;;;;;;;;;;;10.40;99.90;;;;;;5002311;28;20383;-69
2022/04/29 09:05:56;;;;;;;;;;;10.40;99.90;;;;;;5001885;28;19941;-68
2022/04/29 09:08:22;;;;;;;;;;;10.40;99.90;;;;;;5003875;28;19929;-68
2022/04/29 09:10:56;;;;;;;;;;;10.50;99.90;;;;;;5002683;28;20298;-68
2022/04/29 09:13:31;;;;;;;;;;;10.60;99.90;;;;;;5002208;28;19929;-68
2022/04/29 09:15:58;;;;;;;;;;;11.80;99.90;;;;;;4999089;28;19948;-68
2022/04/29 09:18:39;;;;;;;;;;;10.60;99.90;;;;;;5001290;28;19932;-67
2022/04/29 09:21:09;;;;;;;;;;;10.50;99.90;;;;;;5000600;28;19926;-68
2022/04/29 09:23:43;;;;;;;;;;;10.50;99.90;;;;;;5002326;28;19925;-68
2022/04/29 09:26:29;;;;;;;;;;;10.50;99.90;;;;;;5001306;28;19929;-68
2022/04/29 09:28:57;;;;;;;;;;;10.50;99.90;;;;;;5001378;28;19925;-68
2022/04/29 09:31:23;;;;;;;;;;;10.40;99.90;;;;;;5004387;28;19963;-67
2022/04/29 09:33:56;;;;;;;;;;;10.40;99.90;;;;;;5003841;28;19969;-67
2022/04/29 09:36:24;;;;;;;;;;;10.50;99.90;;;;;;5016708;28;20020;-68
2022/04/29 09:41:35;;;;;;;;;;;10.40;99.90;;;;;;5003850;28;20016;-68
2022/04/29 09:44:01;;;;;;;;;;;10.30;99.90;;;;;;5000803;28;19929;-67
2022/04/29 09:46:26;;;;;;;;;;;10.20;99.90;;;;;;5003230;28;19972;-67
2022/04/29 09:49:19;;;;;;;;;;;10.30;99.90;;;;;;5001129;28;19964;-68
2022/04/29 09:51:49;;;;;;;;;;;10.30;99.90;;;;;;4997033;28;19921;-69
2022/04/29 09:54:17;;;;;;;;;;;10.20;99.90;;;;;;5003041;28;20323;-67
2022/04/29 09:56:44;;;;;;;;;;;10.20;99.90;;;;;;5003466;28;20020;-68
2022/04/29 09:59:09;;;;;;;;;;;10.10;99.90;;;;;;5002930;28;19926;-67
2022/04/29 10:01:35;;;;;;;;;;;10.10;99.90;;;;;;5001217;28;19932;-67
2022/04/29 10:04:01;;;;;;;;;;;10.10;99.90;;;;;;5003415;28;19925;-68
2022/04/29 10:06:27;;;;;;;;;;;10.20;99.90;;;;;;5002618;28;19987;-67
2022/04/29 10:08:53;;;;;;;;;;;10.10;99.90;;;;;;5004715;28;19929;-67
2022/04/29 10:11:21;;;;;;;;;;;9.90;99.90;;;;;;5004207;28;20060;-68
2022/04/29 10:13:48;;;;;;;;;;;10.00;99.90;;;;;;5003544;28;19925;-68
2022/04/29 10:16:15;;;;;;;;;;;10.00;99.90;;;;;;5005712;28;19929;-68
2022/04/29 10:21:30;;;;;;;;;;;10.20;99.90;;;;;;5006092;28;20008;-67
2022/04/29 10:23:57;;;;;;;;;;;10.10;99.90;;;;;;5002416;28;19980;-68
2022/04/29 10:26:23;;;;;;;;;;;10.20;99.90;;;;;;5002362;28;19925;-68
2022/04/29 10:28:52;;;;;;;;;;;10.10;99.90;;;;;;4989327;28;20441;-67
2022/04/29 10:31:23;;;;;;;;;;;10.00;99.90;;;;;;4987641;28;19960;-67
2022/04/29 10:33:49;;;;;;;;;;;9.90;99.90;;;;;;5004138;28;20012;-67
2022/04/29 10:36:16;;;;;;;;;;;9.90;99.90;;;;;;5003187;28;20134;-68
2022/04/29 10:38:48;;;;;;;;;;;9.80;99.90;;;;;;5004999;28;19936;-67
2022/04/29 10:41:18;;;;;;;;;;;9.90;99.90;;;;;;5001261;28;20379;-68
2022/04/29 10:43:48;;;;;;;;;;;10.00;99.90;;;;;;5001904;28;20325;-67
2022/04/29 10:46:13;;;;;;;;;;;10.00;99.90;;;;;;4984731;28;19929;-68
2022/04/29 10:48:39;;;;;;;;;;;10.10;99.90;;;;;;5007252;28;20268;-68
2022/04/29 10:51:11;;;;;;;;;;;10.00;99.90;;;;;;5009440;28;20298;-69
2022/04/29 10:53:37;;;;;;;;;;;10.00;99.90;;;;;;5007242;28;19925;-67
2022/04/29 10:56:22;;;;;;;;;;;10.00;99.90;;;;;;5004868;28;19921;-68
2022/04/29 10:58:47;;;;;;;;;;;10.00;99.90;;;;;;5020282;28;19934;-68
2022/04/29 11:01:24;;;;;;;;;;;10.10;99.90;;;;;;4991527;28;19926;-68
2022/04/29 11:03:50;;;;;;;;;;;10.10;99.90;;;;;;4994662;28;19925;-68
2022/04/29 11:06:15;;;;;;;;;;;10.60;99.90;;;;;;5016312;28;20387;-69
2022/04/29 11:08:42;;;;;;;;;;;10.20;99.90;;;;;;5000506;28;19925;-68
2022/04/29 11:11:08;;;;;;;;;;;10.30;99.90;;;;;;5011277;28;19926;-69
2022/04/29 11:13:35;;;;;;;;;;;10.80;99.90;;;;;;5009594;28;19922;-68
2022/04/29 11:16:08;;;;;;;;;;;10.50;99.90;;;;;;4997971;28;19930;-69
2022/04/29 11:18:34;;;;;;;;;;;10.40;99.90;;;;;;5004567;28;20433;-68
2022/04/29 11:21:00;;;;;;;;;;;10.40;99.90;;;;;;5007602;28;19925;-68
2022/04/29 11:26:10;;;;;;;;;;;10.50;99.90;;;;;;5005897;28;20283;-67
2022/04/29 11:28:36;;;;;;;;;;;10.50;99.90;;;;;;5003501;28;19925;-70
2022/04/29 11:31:06;;;;;;;;;;;10.70;99.90;;;;;;5008167;28;20532;-68
2022/04/29 11:33:31;;;;;;;;;;;10.70;99.90;;;;;;5010554;28;19965;-68
2022/04/29 11:36:07;;;;;;;;;;;10.80;99.90;;;;;;5007539;28;19980;-68
2022/04/29 11:38:41;;;;;;;;;;;10.70;99.90;;;;;;5000983;28;20012;-68
2022/04/29 11:41:07;;;;;;;;;;;10.90;99.90;;;;;;5024072;28;19924;-70
2022/04/29 11:43:33;;;;;;;;;;;10.80;99.90;;;;;;4997616;28;19936;-69
2022/04/29 11:46:05;;;;;;;;;;;10.70;99.90;;;;;;4999536;28;20396;-69
2022/04/29 11:48:31;;;;;;;;;;;10.70;99.90;;;;;;5003068;28;19922;-69
2022/04/29 11:50:57;;;;;;;;;;;10.50;99.90;;;;;;5004440;28;19941;-69
2022/04/29 11:53:23;;;;;;;;;;;10.80;99.90;;;;;;5001299;28;19921;-68
2022/04/29 11:55:52;;;;;;;;;;;10.40;99.90;;;;;;5006941;28;19944;-68
2022/04/29 11:58:18;;;;;;;;;;;10.40;99.90;;;;;;5006018;28;21408;-68
2022/04/29 12:00:50;;;;;;;;;;;10.40;99.90;;;;;;4997913;28;20268;-67
2022/04/29 12:03:19;;;;;;;;;;;10.50;99.90;;;;;;5012517;28;19928;-68
2022/04/29 12:05:45;;;;;;;;;;;10.70;99.90;;;;;;4997465;28;19929;-67
2022/04/29 12:08:12;;;;;;;;;;;10.70;99.90;;;;;;5014536;28;19923;-68
2022/04/29 12:10:37;;;;;;;;;;;10.80;99.90;;;;;;5014527;28;19944;-68
2022/04/29 12:13:03;;;;;;;;;;;11.00;99.90;;;;;;5006038;28;19922;-69
2022/04/29 12:15:34;;;;;;;;;;;11.10;99.90;;;;;;5006244;28;20415;-68
2022/04/29 12:18:01;;;;;;;;;;;11.30;99.90;;;;;;5014933;28;20276;-68
2022/04/29 12:20:27;;;;;;;;;;;11.30;99.90;;;;;;5014287;28;20004;-68
2022/04/29 12:22:53;;;;;;;;;;;11.30;99.80;;;;;;5014294;28;19922;-67
2022/04/29 12:25:19;;;;;;;;;;;11.40;99.20;;;;;;5013261;28;20387;-68
2022/04/29 12:27:44;;;;;;;;;;;11.50;99.90;;;;;;5014334;28;19921;-67
2022/04/29 12:36:04;;;;;;;;;;;11.10;99.90;;;;;;5014651;28;20295;-68
2022/04/29 12:38:40;;;;;;;;;;;11.10;99.90;;;;;;5015082;28;20016;-69
2022/04/29 12:41:24;;;;;;;;;;;11.30;99.90;;;;;;5006571;28;19946;-68
2022/04/29 12:43:51;;;;;;;;;;;11.20;99.80;;;;;;4994790;28;19968;-68
2022/04/29 12:46:18;;;;;;;;;;;11.10;99.90;;;;;;5001683;28;20062;-68
2022/04/29 12:48:48;;;;;;;;;;;11.30;99.50;;;;;;4994639;28;19929;-67
2022/04/29 12:51:24;;;;;;;;;;;11.30;99.40;;;;;;5006192;28;20008;-69
2022/04/29 12:53:50;;;;;;;;;;;11.00;99.90;;;;;;5013879;28;19975;-69
2022/04/29 12:56:32;;;;;;;;;;;10.80;99.90;;;;;;5013446;28;19928;-68
2022/04/29 12:58:58;;;;;;;;;;;10.70;99.90;;;;;;5013759;28;19967;-68
2022/04/29 13:01:24;;;;;;;;;;;10.80;99.90;;;;;;5014164;28;19965;-68
2022/04/29 13:03:52;;;;;;;;;;;10.90;99.90;;;;;;5013554;28;20384;-68
2022/04/29 13:06:19;;;;;;;;;;;11.00;99.90;;;;;;5012626;28;19921;-68
2022/04/29 13:08:45;;;;;;;;;;;11.30;99.90;;;;;;4992597;28;20337;-68
2022/04/29 13:11:18;;;;;;;;;;;11.10;99.70;;;;;;4994101;28;19926;-68
2022/04/29 13:13:44;;;;;;;;;;;11.20;99.90;;;;;;5011087;28;20338;-68
2022/04/29 13:16:09;;;;;;;;;;;11.30;99.90;;;;;;5013518;28;19928;-68
2022/04/29 13:18:35;;;;;;;;;;;11.60;99.60;;;;;;5013680;28;19989;-69
2022/04/29 13:21:06;;;;;;;;;;;11.50;99.10;;;;;;5013307;28;19921;-68
2022/04/29 13:23:32;;;;;;;;;;;11.50;99.20;;;;;;5012777;28;20008;-68
2022/04/29 13:25:57;;;;;;;;;;;11.30;99.10;;;;;;5012943;28;19975;-67
2022/04/29 13:28:23;;;;;;;;;;;11.20;99.60;;;;;;5013557;28;20376;-67
2022/04/29 13:30:49;;;;;;;;;;;11.30;99.90;;;;;;5011676;28;19967;-69
2022/04/29 13:33:14;;;;;;;;;;;11.30;99.90;;;;;;5012453;28;20376;-69
2022/04/29 13:35:40;;;;;;;;;;;11.40;99.70;;;;;;5010611;28;19922;-69
2022/04/29 13:38:06;;;;;;;;;;;11.40;99.30;;;;;;5004822;28;20368;-69
2022/04/29 13:40:32;;;;;;;;;;;11.20;99.80;;;;;;5002261;28;19921;-68
2022/04/29 13:42:58;;;;;;;;;;;11.20;99.90;;;;;;5012845;28;19928;-68
2022/04/29 13:45:24;;;;;;;;;;;11.10;99.90;;;;;;5013641;28;19921;-67
2022/04/29 13:47:50;;;;;;;;;;;11.00;99.90;;;;;;5012284;28;19929;-68
2022/04/29 13:50:16;;;;;;;;;;;10.90;99.90;;;;;;5023131;28;19976;-67
2022/04/29 13:55:26;;;;;;;;;;;10.90;99.90;;;;;;4999980;28;20334;-69
2022/04/29 13:57:53;;;;;;;;;;;11.00;99.90;;;;;;5000310;28;19929;-70
2022/04/29 14:00:19;;;;;;;;;;;11.10;99.90;;;;;;5010753;28;19972;-69
2022/04/29 14:02:44;;;;;;;;;;;10.70;99.90;;;;;;5013331;28;19925;-68
2022/04/29 14:05:10;;;;;;;;;;;10.60;99.90;;;;;;5008621;28;19987;-68
2022/04/29 14:07:37;;;;;;;;;;;10.90;99.90;;;;;;5012555;28;19921;-69
2022/04/29 14:10:03;;;;;;;;;;;10.50;99.90;;;;;;4994141;28;20008;-70
2022/04/29 14:12:29;;;;;;;;;;;10.60;99.90;;;;;;5010932;28;20063;-69
2022/04/29 14:14:57;;;;;;;;;;;10.60;99.90;;;;;;5011933;28;19921;-69
2022/04/29 14:17:23;;;;;;;;;;;10.60;99.90;;;;;;5007664;28;19922;-69
2022/04/29 14:19:49;;;;;;;;;;;10.60;99.90;;;;;;4999479;28;19930;-69
2022/04/29 14:22:14;;;;;;;;;;;10.70;99.90;;;;;;4998279;28;20413;-69
2022/04/29 14:24:41;;;;;;;;;;;10.60;99.90;;;;;;5009120;28;19947;-69
2022/04/29 14:27:06;;;;;;;;;;;10.70;99.90;;;;;;4992354;28;19921;-69
2022/04/29 14:29:39;;;;;;;;;;;10.60;99.90;;;;;;5002579;28;19921;-69
2022/04/29 14:32:09;;;;;;;;;;;10.50;99.90;;;;;;4999043;28;20379;-69
2022/04/29 14:34:35;;;;;;;;;;;10.60;99.90;;;;;;5007952;28;19943;-69
2022/04/29 14:37:02;;;;;;;;;;;10.70;99.90;;;;;;5001924;28;20036;-69
2022/04/29 14:39:28;;;;;;;;;;;11.80;99.90;;;;;;5006450;28;19945;-69
2022/04/29 14:41:57;;;;;;;;;;;10.60;99.90;;;;;;4994896;28;19944;-69
2022/04/29 14:44:23;;;;;;;;;;;10.70;99.90;;;;;;5011252;28;20297;-68
2022/04/29 14:46:50;;;;;;;;;;;10.70;99.90;;;;;;5006183;28;19929;-68
2022/04/29 14:49:16;;;;;;;;;;;10.60;99.90;;;;;;5004862;28;19922;-69
2022/04/29 14:51:42;;;;;;;;;;;10.60;99.90;;;;;;5016899;28;19922;-68
2022/04/29 14:54:08;;;;;;;;;;;10.70;99.90;;;;;;5018808;28;19928;-68
2022/04/29 14:56:34;;;;;;;;;;;10.60;99.90;;;;;;5024341;28;19929;-69